Time;durP1;ratioP1;P1;durP2;ratioP2;P2;SDS_P1;SDS_P2;PMS_P1;PMS_P2;Temp;Humidity;BMP_temperature;BMP_pressure;BME280_temperature;BME280_humidity;BME280_pressure;Samples;Min_cycle;Max_cycle;Signal;HPM_P1;HPM_P2
2022/05/17 00:01:11;;;;;;;;;;;;;;;23.07;27.71;101325.41;5010127;28;97207;-73
2022/05/17 00:03:37;;;;;;;;;;;;;;;23.16;27.44;101329.22;5002279;28;98042;-75
2022/05/17 00:06:06;;;;;;;;;;;;;;;23.15;27.42;101317.56;5006634;28;96771;-72
2022/05/17 00:08:32;;;;;;;;;;;;;;;22.84;27.98;101316.41;4995944;28;98719;-72
2022/05/17 00:10:58;;;;;;;;;;;;;;;23.10;27.67;101317.09;5001482;28;98263;-73
2022/05/17 00:13:24;;;;;;;;;;;;;;;22.95;27.90;101311.06;5004042;28;98916;-72
2022/05/17 00:15:52;;;;;;;;;;;;;;;23.15;27.71;101312.19;5002114;28;96873;-72
2022/05/17 00:18:19;;;;;;;;;;;;;;;22.94;27.91;101314.72;5004073;27;97456;-72
2022/05/17 00:20:46;;;;;;;;;;;;;;;23.52;27.32;101320.91;5000983;28;99333;-73
2022/05/17 00:23:15;;;;;;;;;;;;;;;23.61;27.06;101313.91;5000982;28;101747;-72
2022/05/17 00:25:41;;;;;;;;;;;;;;;23.56;27.75;101316.13;5002640;28;96910;-72
2022/05/17 00:28:08;;;;;;;;;;;;;;;23.62;27.48;101318.34;4999995;28;97899;-73
2022/05/17 00:30:34;;;;;;;;;;;;;;;23.59;27.55;101318.56;5002595;28;99609;-72
2022/05/17 00:33:01;;;;;;;;;;;;;;;23.16;28.40;101322.00;5008495;28;98532;-72
2022/05/17 00:35:27;;;;;;;;;;;;;;;23.54;28.89;101323.50;5004529;28;98799;-73
2022/05/17 00:37:54;;;;;;;;;;;;;;;23.04;30.68;101317.53;5003352;28;97782;-72
2022/05/17 00:40:21;;;;;;;;;;;;;;;23.49;30.94;101317.63;5006251;28;102008;-71
2022/05/17 00:42:47;;;;;;;;;;;;;;;23.29;31.83;101319.19;5004285;28;99766;-72
2022/05/17 00:45:14;;;;;;;;;;;;;;;23.08;31.92;101310.09;5007065;28;96914;-74
2022/05/17 00:47:42;;;;;;;;;;;;;;;23.45;31.80;101319.66;5002012;28;98813;-72
2022/05/17 00:50:11;;;;;;;;;;;;;;;23.10;32.63;101317.09;5005440;28;98948;-73
2022/05/17 00:52:41;;;;;;;;;;;;;;;22.82;31.78;101314.81;5006007;28;99641;-75
2022/05/17 00:55:10;;;;;;;;;;;;;;;23.06;31.67;101312.91;5002914;28;97863;-73
2022/05/17 00:57:42;;;;;;;;;;;;;;;23.42;31.33;101317.22;5004889;28;97052;-72
2022/05/17 01:00:12;;;;;;;;;;;;;;;22.91;31.76;101312.25;5008493;28;97807;-72
2022/05/17 01:02:39;;;;;;;;;;;;;;;23.19;32.10;101313.63;5007508;28;99443;-72
2022/05/17 01:05:06;;;;;;;;;;;;;;;22.71;31.85;101318.28;4999853;28;96853;-71
2022/05/17 01:07:37;;;;;;;;;;;;;;;22.67;32.31;101315.00;5005623;28;97072;-72
2022/05/17 01:10:04;;;;;;;;;;;;;;;23.11;32.27;101309.81;5000296;28;98118;-73
2022/05/17 01:12:30;;;;;;;;;;;;;;;22.78;32.08;101313.31;5004019;28;98999;-74
2022/05/17 01:14:57;;;;;;;;;;;;;;;23.22;33.10;101313.41;5006256;28;96900;-71
2022/05/17 01:17:23;;;;;;;;;;;;;;;22.85;32.60;101317.25;5004009;28;96919;-74
2022/05/17 01:19:50;;;;;;;;;;;;;;;22.97;33.82;101308.25;5001859;28;98962;-73
2022/05/17 01:22:18;;;;;;;;;;;;;;;23.20;34.59;101315.38;5002432;28;99047;-73
2022/05/17 01:24:44;;;;;;;;;;;;;;;23.04;35.69;101309.44;4997526;27;97775;-74
2022/05/17 01:27:12;;;;;;;;;;;;;;;23.25;34.86;101313.16;5002915;28;96973;-73
2022/05/17 01:29:40;;;;;;;;;;;;;;;23.41;34.84;101310.97;4995905;28;99152;-72
2022/05/17 01:32:08;;;;;;;;;;;;;;;22.77;34.50;101317.03;5001069;28;98968;-73
2022/05/17 01:34:34;;;;;;;;;;;;;;;23.10;35.19;101319.78;5006469;28;97854;-72
2022/05/17 01:37:00;;;;;;;;;;;;;;;23.18;35.23;101320.00;5002454;28;96888;-71
2022/05/17 01:39:29;;;;;;;;;;;;;;;22.85;36.84;101326.22;5002505;28;98011;-73
2022/05/17 01:41:55;;;;;;;;;;;;;;;22.75;38.08;101325.22;4999390;28;99281;-71
2022/05/17 01:44:22;;;;;;;;;;;;;;;23.01;37.58;101329.44;5006022;28;97180;-71
2022/05/17 01:46:49;;;;;;;;;;;;;;;22.64;37.92;101334.06;5003186;28;96923;-73
2022/05/17 01:49:15;;;;;;;;;;;;;;;22.70;39.21;101322.00;4998228;28;98927;-73
2022/05/17 01:51:41;;;;;;;;;;;;;;;22.32;40.47;101337.53;5005375;28;99006;-73
2022/05/17 01:54:07;;;;;;;;;;;;;;;22.43;41.11;101341.13;5001450;28;96845;-72
2022/05/17 01:56:35;;;;;;;;;;;;;;;22.15;41.12;101347.69;5004002;28;96725;-72
2022/05/17 01:59:01;;;;;;;;;;;;;;;22.24;41.80;101348.84;4998858;28;99195;-73
2022/05/17 02:01:28;;;;;;;;;;;;;;;22.30;39.02;101359.16;5002566;28;98778;-72
2022/05/17 02:03:54;;;;;;;;;;;;;;;22.35;38.08;101365.06;5007097;28;96952;-72
2022/05/17 02:06:22;;;;;;;;;;;;;;;22.30;39.61;101361.00;5004710;28;97281;-72
2022/05/17 02:08:49;;;;;;;;;;;;;;;22.41;40.37;101361.03;5003484;28;99824;-72
2022/05/17 02:11:15;;;;;;;;;;;;;;;22.13;41.71;101360.41;4999210;28;100150;-72
2022/05/17 02:13:43;;;;;;;;;;;;;;;22.36;42.34;101356.00;5003914;28;97318;-71
2022/05/17 02:16:09;;;;;;;;;;;;;;;21.95;43.12;101360.88;5000948;28;98698;-72
2022/05/17 02:18:36;;;;;;;;;;;;;;;22.02;42.70;101363.03;4999342;28;99121;-73
2022/05/17 02:21:02;;;;;;;;;;;;;;;22.37;42.36;101364.94;4996474;28;101600;-73
2022/05/17 02:23:28;;;;;;;;;;;;;;;22.03;42.74;101361.22;5003162;28;96765;-74
2022/05/17 02:25:55;;;;;;;;;;;;;;;22.03;43.33;101363.91;5000590;28;97292;-71
2022/05/17 02:28:21;;;;;;;;;;;;;;;22.16;42.96;101368.28;5000075;28;98884;-72
2022/05/17 02:30:49;;;;;;;;;;;;;;;22.19;44.83;101369.84;4999449;28;99140;-72
2022/05/17 02:33:16;;;;;;;;;;;;;;;21.95;45.93;101366.25;5001309;28;96952;-72
2022/05/17 02:35:43;;;;;;;;;;;;;;;21.80;46.21;101374.47;4996352;28;96919;-75
2022/05/17 02:38:10;;;;;;;;;;;;;;;22.25;45.57;101374.81;4999254;28;99290;-76
2022/05/17 02:40:36;;;;;;;;;;;;;;;22.09;47.35;101380.47;5000909;28;98906;-74
2022/05/17 02:43:03;;;;;;;;;;;;;;;21.96;43.74;101386.84;5004279;28;97704;-73
2022/05/17 02:45:30;;;;;;;;;;;;;;;21.63;44.51;101379.34;5004302;28;97090;-74
2022/05/17 02:47:58;;;;;;;;;;;;;;;21.59;44.94;101386.78;4997222;28;99279;-73
2022/05/17 02:50:24;;;;;;;;;;;;;;;21.69;45.65;101393.22;4994139;28;98801;-73
2022/05/17 02:52:51;;;;;;;;;;;;;;;21.44;46.81;101391.41;4999880;28;96821;-73
2022/05/17 02:55:17;;;;;;;;;;;;;;;21.60;45.95;101388.47;4999781;28;99067;-71
2022/05/17 02:57:43;;;;;;;;;;;;;;;21.69;46.00;101403.97;5000265;28;99444;-72
2022/05/17 03:00:12;;;;;;;;;;;;;;;21.64;47.27;101399.91;5001409;28;99251;-72
2022/05/17 03:02:39;;;;;;;;;;;;;;;21.20;47.62;101403.88;5002694;28;97220;-73
2022/05/17 03:05:08;;;;;;;;;;;;;;;21.71;47.03;101407.44;5002262;28;97402;-72
2022/05/17 03:07:34;;;;;;;;;;;;;;;21.56;48.27;101411.19;5000852;28;99064;-72
2022/05/17 03:10:00;;;;;;;;;;;;;;;21.93;48.79;101413.94;5002004;28;98716;-73
2022/05/17 03:12:26;;;;;;;;;;;;;;;21.84;49.52;101427.09;5002301;28;96913;-72
2022/05/17 03:14:53;;;;;;;;;;;;;;;21.71;51.51;101428.09;5011038;28;96829;-73
2022/05/17 03:17:19;;;;;;;;;;;;;;;21.94;50.37;101435.34;5001819;28;98923;-72
2022/05/17 03:19:46;;;;;;;;;;;;;;;21.93;50.33;101430.06;5001617;28;97935;-72
2022/05/17 03:22:13;;;;;;;;;;;;;;;21.71;49.91;101434.31;5005000;28;97836;-72
2022/05/17 03:24:39;;;;;;;;;;;;;;;21.71;49.32;101447.78;5003474;28;97757;-71
2022/05/17 03:27:06;;;;;;;;;;;;;;;21.56;50.76;101445.28;5002001;28;98414;-71
2022/05/17 03:29:33;;;;;;;;;;;;;;;21.63;50.59;101457.34;5006813;28;99191;-71
2022/05/17 03:32:00;;;;;;;;;;;;;;;21.68;50.61;101461.41;5008594;28;98929;-70
2022/05/17 03:34:26;;;;;;;;;;;;;;;21.60;51.20;101476.38;5013267;28;97113;-71
2022/05/17 03:36:53;;;;;;;;;;;;;;;21.53;51.62;101475.09;4998693;28;99172;-71
2022/05/17 03:39:20;;;;;;;;;;;;;;;21.18;51.89;101488.28;5010394;28;98489;-73
2022/05/17 03:41:46;;;;;;;;;;;;;;;20.97;51.98;101491.41;5003738;28;98646;-72
2022/05/17 03:44:13;;;;;;;;;;;;;;;21.07;52.57;101494.31;5012241;28;97054;-72
2022/05/17 03:46:39;;;;;;;;;;;;;;;21.31;51.48;101500.78;5000158;28;99261;-70
2022/05/17 03:49:05;;;;;;;;;;;;;;;20.89;51.93;101493.75;5005854;28;98376;-71
2022/05/17 03:51:32;;;;;;;;;;;;;;;20.20;53.85;101494.69;4998121;28;99013;-71
2022/05/17 03:53:58;;;;;;;;;;;;;;;20.47;53.13;101496.59;5000491;28;97099;-72
2022/05/17 03:56:26;;;;;;;;;;;;;;;20.80;52.81;101504.25;5004354;28;98930;-73
2022/05/17 03:58:52;;;;;;;;;;;;;;;20.65;52.42;101500.75;4999957;28;98917;-72
2022/05/17 04:01:18;;;;;;;;;;;;;;;20.68;52.44;101504.06;5002232;28;98760;-71
2022/05/17 04:03:44;;;;;;;;;;;;;;;20.34;53.92;101506.38;5011549;28;99289;-72
2022/05/17 04:06:11;;;;;;;;;;;;;;;20.20;52.87;101516.16;5007502;28;100093;-72
2022/05/17 04:08:38;;;;;;;;;;;;;;;19.95;54.17;101502.56;5005982;28;97770;-71
2022/05/17 04:11:04;;;;;;;;;;;;;;;19.56;52.83;101515.75;5002669;28;96801;-75
2022/05/17 04:13:32;;;;;;;;;;;;;;;19.62;52.82;101518.03;5005271;28;99368;-72
2022/05/17 04:15:58;;;;;;;;;;;;;;;19.25;53.46;101508.63;5000275;28;98868;-73
2022/05/17 04:18:25;;;;;;;;;;;;;;;19.35;54.15;101518.72;5003023;28;99134;-73
2022/05/17 04:20:51;;;;;;;;;;;;;;;19.93;53.90;101515.19;5002840;28;98680;-72
2022/05/17 04:23:17;;;;;;;;;;;;;;;20.15;53.33;101517.41;5003249;28;99092;-74
2022/05/17 04:25:44;;;;;;;;;;;;;;;20.05;52.84;101526.97;5001065;28;98507;-73
2022/05/17 04:28:10;;;;;;;;;;;;;;;19.98;52.38;101521.13;5003265;28;97769;-73
2022/05/17 04:30:37;;;;;;;;;;;;;;;20.12;53.04;101521.13;5001649;28;97054;-74
2022/05/17 04:33:04;;;;;;;;;;;;;;;19.94;51.53;101522.28;4998286;28;97968;-74
2022/05/17 04:35:30;;;;;;;;;;;;;;;20.08;52.04;101511.56;5004671;28;99007;-73
2022/05/17 04:37:56;;;;;;;;;;;;;;;19.93;51.81;101517.00;5004222;28;98562;-71
2022/05/17 04:40:23;;;;;;;;;;;;;;;19.81;52.09;101510.59;4999879;28;98368;-74
2022/05/17 04:42:50;;;;;;;;;;;;;;;19.92;53.42;101509.91;5002802;28;98669;-66
2022/05/17 04:45:17;;;;;;;;;;;;;;;20.12;52.35;101510.41;4998599;28;99082;-66
2022/05/17 04:47:45;;;;;;;;;;;;;;;20.00;53.51;101505.81;4998182;28;99035;-65
2022/05/17 04:50:12;;;;;;;;;;;;;;;20.07;54.54;101509.84;5004724;28;96834;-65
2022/05/17 04:52:38;;;;;;;;;;;;;;;20.08;54.67;101505.31;5005240;28;99109;-65
2022/05/17 04:55:05;;;;;;;;;;;;;;;20.03;54.54;101513.66;5007182;28;99281;-66
2022/05/17 04:57:32;;;;;;;;;;;;;;;19.88;55.13;101504.75;5004227;28;99179;-66
2022/05/17 04:59:59;;;;;;;;;;;;;;;20.01;55.11;101504.00;5002088;28;97152;-66
2022/05/17 05:02:25;;;;;;;;;;;;;;;20.25;54.81;101508.66;5002259;28;97700;-65
2022/05/17 05:04:53;;;;;;;;;;;;;;;20.01;54.81;101502.16;5003880;28;99600;-66
2022/05/17 05:07:19;;;;;;;;;;;;;;;19.78;55.52;101506.28;4997375;28;97709;-66
2022/05/17 05:09:46;;;;;;;;;;;;;;;19.88;55.90;101504.75;5002050;28;98460;-66
2022/05/17 05:12:12;;;;;;;;;;;;;;;19.96;55.92;101506.94;5004068;28;98786;-65
2022/05/17 05:14:38;;;;;;;;;;;;;;;20.15;56.15;101504.81;5004628;28;98597;-67
2022/05/17 05:17:05;;;;;;;;;;;;;;;20.21;56.66;101517.00;5000719;28;98767;-66
2022/05/17 05:19:31;;;;;;;;;;;;;;;19.77;57.73;101499.19;4997877;28;97874;-65
2022/05/17 05:22:00;;;;;;;;;;;;;;;20.03;56.87;101494.88;4998998;28;97860;-66
2022/05/17 05:24:26;;;;;;;;;;;;;;;20.08;55.84;101495.47;4999897;28;99140;-68
2022/05/17 05:26:53;;;;;;;;;;;;;;;20.07;55.76;101500.91;4996802;28;98067;-67
2022/05/17 05:29:19;;;;;;;;;;;;;;;19.97;56.33;101494.38;5000541;28;97106;-68
2022/05/17 05:31:46;;;;;;;;;;;;;;;20.16;55.62;101497.63;5004732;28;96904;-67
2022/05/17 05:34:12;;;;;;;;;;;;;;;20.30;54.55;101487.75;4998953;28;103737;-66
2022/05/17 05:36:38;;;;;;;;;;;;;;;20.38;55.40;101492.66;5003027;28;99226;-66
2022/05/17 05:39:06;;;;;;;;;;;;;;;20.22;55.39;101484.69;5005603;28;97422;-66
2022/05/17 05:41:33;;;;;;;;;;;;;;;20.41;55.45;101496.97;4997843;28;98918;-66
2022/05/17 05:44:00;;;;;;;;;;;;;;;20.35;55.78;101521.53;5004941;28;99009;-65
2022/05/17 05:46:27;;;;;;;;;;;;;;;20.61;55.99;101515.34;5005099;28;96807;-66
2022/05/17 05:48:54;;;;;;;;;;;;;;;19.77;55.96;101522.44;5007130;28;96832;-66
2022/05/17 05:51:20;;;;;;;;;;;;;;;19.69;56.28;101533.63;5001606;28;96940;-68
2022/05/17 05:53:46;;;;;;;;;;;;;;;19.87;56.85;101524.47;5003115;28;99234;-66
2022/05/17 05:56:15;;;;;;;;;;;;;;;20.18;56.39;101534.16;5008962;28;98771;-66
2022/05/17 05:58:43;;;;;;;;;;;;;;;20.38;56.35;101524.00;5006970;28;97627;-67
2022/05/17 06:01:09;;;;;;;;;;;;;;;20.49;55.12;101537.59;5003236;28;97238;-66
2022/05/17 06:03:36;;;;;;;;;;;;;;;20.79;54.79;101529.38;5010108;28;99207;-67
2022/05/17 06:06:03;;;;;;;;;;;;;;;20.41;54.93;101526.50;5004590;28;101176;-66
2022/05/17 06:08:30;;;;;;;;;;;;;;;20.32;55.78;101535.09;5008656;28;96920;-68
2022/05/17 06:11:01;;;;;;;;;;;;;;;20.32;54.97;101537.78;5003957;28;96819;-66
2022/05/17 06:13:29;;;;;;;;;;;;;;;19.77;57.44;101549.25;5001998;28;99716;-66
2022/05/17 06:15:58;;;;;;;;;;;;;;;20.00;56.22;101546.03;5008041;28;99514;-66
2022/05/17 06:18:24;;;;;;;;;;;;;;;20.21;56.37;101544.72;5002311;28;96793;-67
2022/05/17 06:20:52;;;;;;;;;;;;;;;20.21;56.65;101549.22;5003158;28;96816;-66
2022/05/17 06:23:19;;;;;;;;;;;;;;;20.23;55.65;101534.72;5002056;28;99322;-66
2022/05/17 06:25:46;;;;;;;;;;;;;;;20.21;55.49;101538.47;4999734;28;99099;-67
2022/05/17 06:28:13;;;;;;;;;;;;;;;20.00;56.41;101548.72;4994809;28;99143;-66
2022/05/17 06:30:42;;;;;;;;;;;;;;;19.99;56.21;101549.69;5001488;28;96912;-68
2022/05/17 06:33:09;;;;;;;;;;;;;;;19.95;55.92;101547.28;4994665;28;101301;-66
2022/05/17 06:35:36;;;;;;;;;;;;;;;19.73;57.32;101553.09;5003988;28;100885;-66
2022/05/17 06:38:05;;;;;;;;;;;;;;;19.89;57.16;101556.56;4999066;28;97752;-66
2022/05/17 06:40:32;;;;;;;;;;;;;;;20.18;56.85;101555.63;5004558;28;96877;-67
2022/05/17 06:42:59;;;;;;;;;;;;;;;20.36;55.38;101560.81;5006190;28;101283;-67
2022/05/17 06:45:25;;;;;;;;;;;;;;;20.58;54.19;101561.16;4999257;28;100786;-67
2022/05/17 06:47:53;;;;;;;;;;;;;;;20.36;54.35;101568.84;5002243;28;96854;-67
2022/05/17 06:50:20;;;;;;;;;;;;;;;20.95;54.14;101573.06;5007231;28;97391;-67
2022/05/17 06:52:46;;;;;;;;;;;;;;;21.21;53.07;101571.38;5004755;28;98943;-67
2022/05/17 06:55:13;;;;;;;;;;;;;;;21.22;52.66;101570.41;5009274;28;99655;-66
2022/05/17 06:57:41;;;;;;;;;;;;;;;21.04;51.65;101567.09;5003477;28;96744;-68
2022/05/17 07:00:11;;;;;;;;;;;;;;;21.42;51.43;101576.16;5008646;28;97018;-68
2022/05/17 07:02:38;;;;;;;;;;;;;;;21.60;51.72;101565.97;5002726;28;101935;-67
2022/05/17 07:05:06;;;;;;;;;;;;;;;21.31;52.08;101572.50;5007884;28;99002;-67
2022/05/17 07:07:32;;;;;;;;;;;;;;;21.41;51.92;101573.56;5000218;28;96886;-67
2022/05/17 07:15:26;;;;;;;;;;;;;;;21.67;49.08;101580.72;5000755;28;97063;-66
2022/05/17 07:20:49;;;;;;;;;;;;;;;22.54;47.62;101578.16;5003141;28;97026;-66
2022/05/17 07:23:15;;;;;;;;;;;;;;;22.87;46.20;101588.34;5002920;28;100142;-67
2022/05/17 07:25:43;;;;;;;;;;;;;;;22.95;46.34;101588.63;5005924;28;98080;-67
2022/05/17 07:28:10;;;;;;;;;;;;;;;22.94;46.96;101595.00;5001939;28;97165;-66
2022/05/17 07:30:37;;;;;;;;;;;;;;;22.88;47.71;101587.38;5001742;28;96806;-68
2022/05/17 07:33:03;;;;;;;;;;;;;;;22.84;48.15;101601.19;5001312;28;97714;-67
2022/05/17 07:35:30;;;;;;;;;;;;;;;22.91;48.65;101607.81;5008140;28;99269;-66
2022/05/17 07:37:58;;;;;;;;;;;;;;;22.94;49.47;101621.94;5007538;28;96797;-67
2022/05/17 07:40:24;;;;;;;;;;;;;;;22.93;49.52;101613.97;5001652;28;96934;-67
2022/05/17 07:42:52;;;;;;;;;;;;;;;22.74;49.50;101624.38;5007635;28;98916;-66
2022/05/17 07:45:18;;;;;;;;;;;;;;;23.06;49.67;101625.56;5004454;28;101239;-66
2022/05/17 07:47:46;;;;;;;;;;;;;;;23.20;48.17;101627.25;5011058;28;96854;-66
2022/05/17 07:50:12;;;;;;;;;;;;;;;23.02;47.16;101632.16;5007143;28;97464;-67
2022/05/17 07:52:39;;;;;;;;;;;;;;;22.42;48.36;101632.91;5008022;28;99491;-66
2022/05/17 07:55:07;;;;;;;;;;;;;;;23.01;47.94;101635.84;5006706;28;99230;-66
2022/05/17 07:57:33;;;;;;;;;;;;;;;22.61;47.23;101644.09;5011112;28;97995;-67
2022/05/17 08:00:00;;;;;;;;;;;;;;;22.70;47.95;101637.19;5001434;28;96789;-67
2022/05/17 08:02:26;;;;;;;;;;;;;;;22.41;48.44;101643.78;5001256;28;99357;-66
2022/05/17 08:04:52;;;;;;;;;;;;;;;22.55;48.01;101649.91;4998755;28;99362;-66
2022/05/17 08:07:19;;;;;;;;;;;;;;;21.89;49.39;101652.75;5001397;28;97141;-67
2022/05/17 08:09:46;;;;;;;;;;;;;;;21.79;49.92;101651.69;5002814;28;97378;-67
2022/05/17 08:12:14;;;;;;;;;;;;;;;21.74;50.55;101648.41;5001507;28;99406;-67
2022/05/17 08:14:41;;;;;;;;;;;;;;;22.35;48.78;101645.06;5001473;28;97579;-66
2022/05/17 08:17:08;;;;;;;;;;;;;;;22.61;47.79;101645.91;5001103;28;97236;-70
2022/05/17 08:19:35;;;;;;;;;;;;;;;22.99;47.20;101640.47;5002749;28;96890;-67
2022/05/17 08:22:03;;;;;;;;;;;;;;;23.19;48.48;101637.16;5001762;28;99700;-66
2022/05/17 08:27:31;;;;;;;;;;;;;;;23.63;46.67;101635.72;5009810;28;100721;-65
2022/05/17 08:27:31;;;;;;;;;;;;;;;23.15;46.90;101645.59;5002908;28;96780;-67
2022/05/17 08:29:58;;;;;;;;;;;;;;;23.66;46.37;101647.13;5002580;28;97845;-67
2022/05/17 08:35:08;;;;;;;;;;;;;;;23.72;45.91;101645.78;5002928;28;97454;-66
2022/05/17 08:37:35;;;;;;;;;;;;;;;23.53;46.34;101654.41;5007116;28;96836;-67
2022/05/17 08:40:01;;;;;;;;;;;;;;;23.50;46.09;101654.63;5001525;28;97409;-66
2022/05/17 08:42:33;;;;;;;;;;;;;;;23.48;46.06;101653.91;4999544;28;101025;-66
2022/05/17 08:45:03;;;;;;;;;;;;;;;23.66;46.24;101663.31;5006440;28;98818;-68
2022/05/17 08:47:39;;;;;;;;;;;;;;;23.99;45.27;101665.25;5000998;28;96773;-66
2022/05/17 08:50:06;;;;;;;;;;;;;;;23.60;46.14;101669.16;5007488;28;97228;-66
2022/05/17 08:52:34;;;;;;;;;;;;;;;23.95;46.11;101666.47;5006024;28;98936;-67
2022/05/17 08:55:01;;;;;;;;;;;;;;;23.89;46.51;101669.66;5006055;28;98769;-66
2022/05/17 08:57:31;;;;;;;;;;;;;;;23.84;47.58;101679.91;5002103;28;97546;-68
2022/05/17 09:00:03;;;;;;;;;;;;;;;24.21;45.08;101670.75;5002830;28;97348;-67
2022/05/17 09:02:35;;;;;;;;;;;;;;;24.67;45.42;101677.06;5003969;28;99508;-72
2022/05/17 09:05:06;;;;;;;;;;;;;;;24.68;45.29;101668.81;5006660;28;100487;-72
2022/05/17 09:07:37;;;;;;;;;;;;;;;24.71;45.70;101668.56;5005153;28;98902;-73
2022/05/17 09:10:06;;;;;;;;;;;;;;;24.36;44.61;101676.78;5017090;28;97293;-74
2022/05/17 09:12:39;;;;;;;;;;;;;;;23.56;46.53;101680.31;5017058;28;98029;-73
2022/05/17 09:15:07;;;;;;;;;;;;;;;24.20;44.88;101669.03;5022984;28;97810;-73
2022/05/17 09:17:34;;;;;;;;;;;;;;;24.92;43.83;101675.00;5024491;28;97082;-73
2022/05/17 09:20:02;;;;;;;;;;;;;;;25.67;43.03;101674.19;5028752;28;97231;-73
2022/05/17 09:22:28;;;;;;;;;;;;;;;25.60;43.02;101681.16;5028451;28;99474;-74
2022/05/17 09:24:56;;;;;;;;;;;;;;;25.39;43.35;101678.34;5020403;28;98408;-73
2022/05/17 09:27:24;;;;;;;;;;;;;;;25.70;41.58;101687.50;5021478;28;97023;-73
2022/05/17 09:29:51;;;;;;;;;;;;;;;25.64;41.84;101678.03;5005413;28;96878;-74
2022/05/17 09:32:25;;;;;;;;;;;;;;;25.76;41.68;101687.81;5006412;28;98971;-73
2022/05/17 09:34:58;;;;;;;;;;;;;;;25.92;40.56;101683.84;5007638;28;98945;-73
2022/05/17 09:37:25;;;;;;;;;;;;;;;25.79;41.06;101684.88;5005664;28;96750;-75
2022/05/17 09:39:53;;;;;;;;;;;;;;;25.63;39.38;101684.44;5001443;28;97383;-74
2022/05/17 09:42:24;;;;;;;;;;;;;;;25.68;39.23;101692.16;5008748;28;98037;-73
2022/05/17 09:44:52;;;;;;;;;;;;;;;26.27;38.70;101689.78;5000858;28;98829;-66
2022/05/17 09:47:24;;;;;;;;;;;;;;;26.40;38.24;101695.88;5004617;28;98448;-67
2022/05/17 09:52:42;;;;;;;;;;;;;;;26.24;38.79;101703.63;5003380;28;96685;-66
2022/05/17 09:55:12;;;;;;;;;;;;;;;26.04;38.78;101697.19;5006870;28;98747;-66
2022/05/17 09:57:39;;;;;;;;;;;;;;;25.97;39.05;101698.69;5005136;28;96839;-65
2022/05/17 10:00:08;;;;;;;;;;;;;;;26.59;38.92;101701.38;5004707;28;96879;-67
2022/05/17 10:02:40;;;;;;;;;;;;;;;25.90;39.64;101699.34;5004784;28;98836;-67
2022/05/17 10:05:13;;;;;;;;;;;;;;;26.63;38.87;101704.72;5006547;28;98779;-67
2022/05/17 10:07:40;;;;;;;;;;;;;;;26.36;39.55;101698.97;5001961;28;96782;-66
2022/05/17 10:10:09;;;;;;;;;;;;;;;26.68;38.87;101702.44;5003059;28;96913;-67
2022/05/17 10:12:38;;;;;;;;;;;;;;;26.90;38.71;101696.00;4998766;28;99694;-66
2022/05/17 10:15:07;;;;;;;;;;;;;;;26.97;38.56;101697.19;5003159;28;100201;-67
2022/05/17 10:17:36;;;;;;;;;;;;;;;26.75;37.96;101702.75;5000654;28;97936;-66
2022/05/17 10:20:03;;;;;;;;;;;;;;;26.69;37.28;101696.03;5006623;28;96827;-67
2022/05/17 10:22:34;;;;;;;;;;;;;;;25.97;38.29;101693.28;5005883;28;98962;-66
2022/05/17 10:25:02;;;;;;;;;;;;;;;26.76;37.24;101690.91;5005028;28;98798;-67
2022/05/17 10:27:33;;;;;;;;;;;;;;;25.87;37.88;101694.16;5005889;28;97726;-67
2022/05/17 10:30:06;;;;;;;;;;;;;;;26.12;38.32;101697.34;5009324;28;97970;-66
2022/05/17 10:32:37;;;;;;;;;;;;;;;25.87;38.52;101691.47;5011497;28;99655;-67
2022/05/17 10:35:10;;;;;;;;;;;;;;;26.23;37.58;101695.59;5008627;28;100534;-67
2022/05/17 10:37:44;;;;;;;;;;;;;;;26.74;36.57;101699.19;5008750;28;97157;-68
2022/05/17 10:40:13;;;;;;;;;;;;;;;26.63;37.68;101701.13;5007051;28;96904;-68
2022/05/17 10:42:39;;;;;;;;;;;;;;;26.78;37.12;101697.06;5004848;28;99239;-67
2022/05/17 10:45:07;;;;;;;;;;;;;;;26.94;36.75;101686.59;5000200;28;97547;-66
2022/05/17 10:47:46;;;;;;;;;;;;;;;26.37;36.75;101689.88;4997649;28;97185;-67
2022/05/17 10:50:17;;;;;;;;;;;;;;;26.20;38.38;101692.16;5000857;28;96882;-69
2022/05/17 10:52:52;;;;;;;;;;;;;;;26.42;37.83;101693.88;5005428;28;99083;-66
2022/05/17 10:55:21;;;;;;;;;;;;;;;26.63;37.89;101691.16;4998677;28;99065;-68
2022/05/17 10:57:52;;;;;;;;;;;;;;;27.11;37.26;101691.34;5003181;28;97823;-67
2022/05/17 11:00:20;;;;;;;;;;;;;;;27.04;38.00;101687.50;4998410;28;96921;-67
2022/05/17 11:02:58;;;;;;;;;;;;;;;27.18;37.56;101702.50;5002802;28;99458;-67
2022/05/17 11:05:28;;;;;;;;;;;;;;;27.01;37.57;101700.47;4999530;28;97925;-68
2022/05/17 11:08:00;;;;;;;;;;;;;;;26.50;37.04;101707.63;5005220;28;96834;-67
2022/05/17 11:10:32;;;;;;;;;;;;;;;26.43;37.91;101706.44;5000735;28;97026;-67
2022/05/17 11:13:06;;;;;;;;;;;;;;;26.54;38.06;101709.06;5002271;28;97980;-67
2022/05/17 11:15:37;;;;;;;;;;;;;;;26.46;39.16;101721.56;5002015;28;101855;-68
2022/05/17 11:18:10;;;;;;;;;;;;;;;26.66;38.13;101717.09;5006020;28;96736;-67
2022/05/17 11:20:40;;;;;;;;;;;;;;;26.55;38.15;101709.94;5003316;28;96863;-67
2022/05/17 11:23:21;;;;;;;;;;;;;;;25.72;39.84;101715.28;5006654;28;97844;-67
2022/05/17 11:25:58;;;;;;;;;;;;;;;26.87;38.37;101720.66;5000159;28;101630;-67
2022/05/17 11:28:44;;;;;;;;;;;;;;;26.47;38.89;101718.72;4998425;28;96879;-67
2022/05/17 11:31:14;;;;;;;;;;;;;;;26.97;37.85;101713.47;5003967;28;96819;-67
2022/05/17 11:33:41;;;;;;;;;;;;;;;26.58;38.38;101721.34;5002289;28;99331;-67
2022/05/17 11:36:09;;;;;;;;;;;;;;;26.36;38.71;101728.78;5005111;28;97465;-68
2022/05/17 11:38:59;;;;;;;;;;;;;;;27.04;37.10;101722.75;5000264;28;96853;-69
2022/05/17 11:41:40;;;;;;;;;;;;;;;26.50;37.78;101721.19;4992229;28;96999;-67
2022/05/17 11:44:19;;;;;;;;;;;;;;;27.28;36.89;101715.13;5003403;28;99043;-67
2022/05/17 11:46:48;;;;;;;;;;;;;;;27.19;35.88;101713.22;5000735;28;101125;-68
2022/05/17 11:49:47;;;;;;;;;;;;;;;27.26;34.42;101717.09;5009074;28;96909;-67
2022/05/17 11:52:21;;;;;;;;;;;;;;;27.05;35.75;101719.03;5008499;28;97543;-66
2022/05/17 11:54:48;;;;;;;;;;;;;;;26.32;36.33;101724.63;5008511;28;101417;-68
2022/05/17 11:57:43;;;;;;;;;;;;;;;26.92;35.53;101723.84;5007481;28;99142;-68
2022/05/17 12:00:30;;;;;;;;;;;;;;;26.90;35.38;101720.41;5007099;28;96994;-67
2022/05/17 12:02:58;;;;;;;;;;;;;;;26.40;35.49;101724.81;5007123;28;98221;-66
2022/05/17 12:05:42;;;;;;;;;;;;;;;26.61;35.83;101719.38;5004236;28;101741;-68
2022/05/17 12:08:28;;;;;;;;;;;;;;;26.98;35.75;101716.00;4996704;28;99102;-68
2022/05/17 12:10:57;;;;;;;;;;;;;;;27.29;34.04;101707.84;5005060;28;96869;-68
2022/05/17 12:13:24;;;;;;;;;;;;;;;28.05;33.18;101712.50;5005030;28;97414;-68
2022/05/17 12:15:53;;;;;;;;;;;;;;;28.26;33.28;101703.34;4998408;28;102139;-67
2022/05/17 12:18:31;;;;;;;;;;;;;;;28.30;33.02;101713.78;5006842;28;97618;-67
2022/05/17 12:21:15;;;;;;;;;;;;;;;27.74;32.79;101709.06;5001474;28;97068;-68
2022/05/17 12:23:47;;;;;;;;;;;;;;;28.10;31.75;101715.63;5006764;28;96864;-67
2022/05/17 12:26:18;;;;;;;;;;;;;;;28.28;32.09;101717.66;5005352;28;97618;-67
2022/05/17 12:28:46;;;;;;;;;;;;;;;27.70;31.82;101715.78;5005419;28;98746;-67
2022/05/17 12:31:17;;;;;;;;;;;;;;;27.88;31.77;101715.94;5011803;28;97137;-67
2022/05/17 12:33:45;;;;;;;;;;;;;;;28.46;31.25;101710.47;5003242;28;97143;-68
2022/05/17 12:36:13;;;;;;;;;;;;;;;28.08;31.96;101716.78;5006978;28;98857;-67
2022/05/17 12:44:12;;;;;;;;;;;;;;;28.03;30.48;101716.34;5003317;28;96698;-67
2022/05/17 12:46:41;;;;;;;;;;;;;;;28.48;29.72;101712.03;5000438;28;98899;-68
2022/05/17 12:49:13;;;;;;;;;;;;;;;28.71;29.48;101712.53;5008334;28;97986;-68
2022/05/17 12:51:41;;;;;;;;;;;;;;;28.62;29.67;101702.53;5002704;28;96884;-68
2022/05/17 12:54:10;;;;;;;;;;;;;;;28.17;30.31;101710.50;5000277;28;97241;-70
2022/05/17 12:56:41;;;;;;;;;;;;;;;28.58;29.25;101712.00;5001145;28;100008;-68
2022/05/17 12:59:09;;;;;;;;;;;;;;;29.06;29.12;101706.41;5001077;28;101580;-68
2022/05/17 13:01:37;;;;;;;;;;;;;;;29.05;29.54;101707.41;5003881;28;97107;-68